Casper, WY

5:43 PM MDT on July 12, 2014 (GMT -0600)
North of Casper, WY (KWYBARNU1) Elev 5276 ft | 42.91 °N, 106.35 °W | Change Station

Current weather conditions updated 4 minutes ago

Partly Cloudy
Partly Cloudy
76.6 °F
Feels Like 78 °F
N
10.5
Wind Variable Wind from NNE
Gusts 10.5 mph

Tomorrow is forecast to be Cooler than today.

Today
High -- | Low -- °F
--% Chance of Precip.
Yesterday
High -- | Low -- °F
Precip. -- in
5:37 AM 8:43 PM
Full, 100% visible
Pressure 30.09 in
Visibility 10.0 miles
Clouds Few 7000 ft
Heat Index 78 °F
Dew Point 54 °F
Humidity 46%
Rainfall 0.00 in
Snow Depth 0 in
UV 5 out of 12
Pollen 3.00 out of 12
Air Quality Not available.
Flu Activity Sporadic
METAR KCPR 122253Z 02016KT 10SM FEW070 28/12 A3027 RMK AO2 PK WND 01028/2231 SLP188 T02780122

More Conditions Fewer Conditions

Pressure 30.09 in
Visibility 10.0 miles
Clouds Few 7000 ft
Heat Index 78 °F
Dew Point 54 °F
Humidity 46%
Rainfall 0.00 in
Snow Depth 0 in
UV 5 out of 12
Pollen 3.00 out of 12
Air Quality Not available.
Flu Activity Sporadic
METAR KCPR 122253Z 02016KT 10SM FEW070 28/12 A3027 RMK AO2 PK WND 01028/2231 SLP188 T02780122

More Conditions Fewer Conditions

10-Day Weather Forecast

Almanac

Astronomy

Jul. 12, 2014 Rise Set
Actual Time 5:37 AM MDT 8:43 PM MDT
Civil Twilight 5:03 AM MDT 9:17 PM MDT
Nautical Twilight 4:19 AM MDT 10:01 PM MDT
Astronomical Twilight 3:27 AM MDT 10:53 PM MDT
Moon 8:44 PM MDT 6:02 AM MDT
Length of Visible Light 16h 14m
Length of Day
15h 05m
Tomorrow will be 1m 23s shorter.
Full, 100% of the Moon is Illuminated
Today
Full
Jul 18
Last Quarter
Jul 26
New
Aug 3
First Quarter
Aug 10
Full

Today's Extremes

State Highs State Lows

Community

WunderPhotos

Upload Photos

1,733,003 photos uploaded!

Nearby

Snow Depth

Station Depth Elevation
Casper Mountain 0 in 7850 ft
Old Battle 0 in 9920 ft
Townsend Creek 2 in 8700 ft
Big Sandy Opening 0 in 9080 ft
Gunsight Pass 1 in 9820 ft

Earthquake Activity

City Distance Mag. Time & Date
No recent earthquake activity has been reported nearby.
Minimum magnitude displayed is 2.5.

Coastal Water Temperatures

Place Temperature
No Stations Reporting

Nearby Weather Stations

Station Location Temp. Heat Index Dew Point Humidity Wind Precip. Elev Updated Type
HADS MILLS TEST STATION WY, Casper, WY 82 °F 80 °F - - North  at  - 0.00 in / hr 5148 ft 5:00 PM MDT MADIS
North of Casper, WY, Bar Nunn, WY 76.6 °F 78 °F 54 °F 46% NNE  at  10.5 mph 0.00 in / hr 5276 ft 5:39 PM MDT Normal
North of Rolling Hills WY, Glenrock, WY 77.7 °F 79 °F 53 °F 42% NNE  at  10.0 mph 0.00 in / hr 5421 ft 5:43 PM MDT Rapid Fire
MesoWest CASPER MTN. , Casper, WY 67 °F - - - North  at  - 0.00 in / hr 7850 ft 4:00 PM MDT MADIS
RAWS CASPER MOUNTAIN WY, Casper, WY 74 °F 77 °F 51 °F 45% NNE  at  6 mph 0.00 in / hr 7740 ft 4:52 PM MDT MADIS
MesoWest RENO HILL , Evansville, WY 66 °F - - - North  at  - 0.00 in / hr 8500 ft 4:00 PM MDT MADIS

Show More Stations Show Fewer Stations